Time;durP1;ratioP1;P1;durP2;ratioP2;P2;SDS_P1;SDS_P2;PMS_P1;PMS_P2;Temp;Humidity;BMP_temperature;BMP_pressure;BME280_temperature;BME280_humidity;BME280_pressure;Samples;Min_cycle;Max_cycle;Signal;HPM_P1;HPM_P2
2021/09/22 00:01:23;;;;;;;11.60;8.40;;;11.30;99.90;;;;;;5054089;28;20475;-79
2021/09/22 00:03:50;;;;;;;12.13;9.83;;;11.20;99.90;;;;;;5057671;28;20536;-78
2021/09/22 00:06:18;;;;;;;13.63;9.10;;;11.20;99.90;;;;;;5064889;28;20445;-79
2021/09/22 00:08:45;;;;;;;12.53;9.47;;;11.10;99.90;;;;;;5036685;28;20475;-79
2021/09/22 00:11:12;;;;;;;11.27;9.40;;;11.10;99.90;;;;;;5038119;28;20524;-78
2021/09/22 00:13:39;;;;;;;11.20;7.80;;;11.10;99.90;;;;;;5045665;28;20487;-79
2021/09/22 00:16:06;;;;;;;14.73;10.53;;;11.20;99.90;;;;;;5051283;28;20500;-79
2021/09/22 00:18:33;;;;;;;12.30;8.77;;;11.20;99.90;;;;;;5035293;28;20889;-79
2021/09/22 00:21:00;;;;;;;13.30;9.40;;;11.30;99.90;;;;;;5044894;28;20428;-79
2021/09/22 00:23:28;;;;;;;12.20;9.40;;;11.30;99.90;;;;;;5020768;28;20473;-79
2021/09/22 00:25:55;;;;;;;12.30;8.47;;;11.20;99.90;;;;;;5051734;28;20480;-78
2021/09/22 00:28:22;;;;;;;11.00;8.50;;;11.10;99.90;;;;;;5021780;28;20499;-80
2021/09/22 00:30:49;;;;;;;14.90;9.70;;;11.10;99.90;;;;;;5031037;28;21005;-79
2021/09/22 00:33:16;;;;;;;10.90;9.23;;;11.00;99.90;;;;;;5021937;28;20505;-79
2021/09/22 00:35:43;;;;;;;13.90;9.90;;;11.00;99.90;;;;;;5017417;28;20553;-79
2021/09/22 00:38:09;;;;;;;12.70;10.00;;;10.90;99.90;;;;;;5029894;28;20476;-79
2021/09/22 00:40:38;;;;;;;11.57;8.93;;;10.90;99.90;;;;;;5037719;28;20892;-78
2021/09/22 00:43:05;;;;;;;14.70;9.47;;;10.90;99.90;;;;;;5037771;28;20453;-79
2021/09/22 00:45:32;;;;;;;12.90;10.37;;;10.90;99.90;;;;;;5036779;28;20455;-79
2021/09/22 00:47:59;;;;;;;13.63;10.07;;;10.90;99.90;;;;;;5037295;28;20472;-78
2021/09/22 00:50:26;;;;;;;11.40;9.27;;;10.90;99.90;;;;;;5037134;28;20456;-79
2021/09/22 00:52:53;;;;;;;10.57;8.73;;;11.10;99.90;;;;;;5038343;28;20496;-79
2021/09/22 00:55:20;;;;;;;11.30;8.70;;;11.10;99.90;;;;;;5037030;28;20527;-79
2021/09/22 00:57:51;;;;;;;11.97;9.57;;;11.10;99.90;;;;;;5033693;28;20506;-79
2021/09/22 01:00:19;;;;;;;12.17;10.10;;;11.00;99.90;;;;;;5034880;28;20533;-79
2021/09/22 01:02:48;;;;;;;12.80;9.87;;;11.00;99.90;;;;;;5022842;28;20455;-79
2021/09/22 01:05:16;;;;;;;11.53;9.10;;;11.00;99.90;;;;;;5053456;28;20454;-77
2021/09/22 01:07:44;;;;;;;13.20;9.43;;;11.00;99.90;;;;;;5032270;28;20505;-79
2021/09/22 01:10:11;;;;;;;11.63;9.20;;;11.00;99.90;;;;;;5038521;28;20452;-79
2021/09/22 01:12:39;;;;;;;12.33;9.23;;;11.00;99.90;;;;;;5029112;28;20449;-78
2021/09/22 01:15:08;;;;;;;12.23;9.90;;;11.00;99.90;;;;;;5033974;28;20434;-78
2021/09/22 01:17:35;;;;;;;13.27;10.60;;;11.00;99.90;;;;;;5048975;28;20509;-78
2021/09/22 01:20:04;;;;;;;12.30;9.73;;;11.00;99.90;;;;;;5035940;28;20457;-78
2021/09/22 01:22:33;;;;;;;13.47;9.63;;;11.00;99.90;;;;;;5035555;28;20492;-79
2021/09/22 01:25:00;;;;;;;12.30;9.57;;;10.90;99.90;;;;;;5036324;28;20818;-79
2021/09/22 01:27:27;;;;;;;12.80;9.50;;;10.90;99.90;;;;;;4993853;28;1136629;-79
2021/09/22 01:29:54;;;;;;;11.73;9.37;;;10.80;99.90;;;;;;5029191;28;20590;-79
2021/09/22 01:32:22;;;;;;;11.90;9.60;;;10.80;99.90;;;;;;5033030;28;20522;-79
2021/09/22 01:34:49;;;;;;;14.60;10.67;;;10.80;99.90;;;;;;5042295;28;20423;-79
2021/09/22 01:37:15;;;;;;;12.53;10.63;;;10.80;99.90;;;;;;5037356;28;20549;-79
2021/09/22 01:39:45;;;;;;;14.53;10.33;;;10.80;99.90;;;;;;5025935;28;20545;-79
2021/09/22 01:42:11;;;;;;;14.60;10.00;;;10.70;99.90;;;;;;5029984;28;20468;-79
2021/09/22 01:44:38;;;;;;;12.33;9.37;;;10.70;99.90;;;;;;5030296;28;20475;-79
2021/09/22 01:47:05;;;;;;;12.63;9.60;;;10.60;99.90;;;;;;5040609;28;20468;-79
2021/09/22 01:49:32;;;;;;;11.30;9.27;;;10.60;99.90;;;;;;5045597;28;20457;-79
2021/09/22 01:52:01;;;;;;;14.17;9.80;;;10.70;99.90;;;;;;5051394;28;20464;-79
2021/09/22 01:54:28;;;;;;;11.87;9.40;;;10.70;99.90;;;;;;5028676;28;20465;-79
2021/09/22 01:56:56;;;;;;;13.73;10.23;;;10.70;99.90;;;;;;5021609;28;20500;-79
2021/09/22 01:59:23;;;;;;;12.83;9.80;;;10.60;99.90;;;;;;5025758;28;20548;-79
2021/09/22 02:01:50;;;;;;;13.30;9.90;;;10.60;99.90;;;;;;5035074;28;20891;-79
2021/09/22 02:04:17;;;;;;;12.30;9.60;;;10.60;99.90;;;;;;5044102;28;20528;-79
2021/09/22 02:06:44;;;;;;;14.87;10.50;;;10.70;99.90;;;;;;5039031;28;20449;-79
2021/09/22 02:09:11;;;;;;;12.10;9.97;;;10.70;99.90;;;;;;5039364;28;20895;-78
2021/09/22 02:11:38;;;;;;;14.20;9.20;;;10.70;99.90;;;;;;5024816;28;20489;-78
2021/09/22 02:14:06;;;;;;;12.03;9.17;;;10.60;99.90;;;;;;5058506;28;20993;-78
2021/09/22 02:16:33;;;;;;;11.70;9.03;;;10.60;99.90;;;;;;5032866;28;20485;-78
2021/09/22 02:18:59;;;;;;;11.67;9.10;;;10.60;99.90;;;;;;5041398;28;20445;-79
2021/09/22 02:21:26;;;;;;;12.33;10.27;;;10.60;99.90;;;;;;5032569;28;20459;-79
2021/09/22 02:23:53;;;;;;;11.00;9.03;;;10.50;99.90;;;;;;5019058;28;20460;-79
2021/09/22 02:26:20;;;;;;;14.10;10.63;;;10.50;99.90;;;;;;5022478;28;20548;-79
2021/09/22 02:28:47;;;;;;;14.23;9.50;;;10.40;99.90;;;;;;5044448;28;20489;-78
2021/09/22 02:31:15;;;;;;;14.90;9.93;;;10.50;99.90;;;;;;5036234;28;20431;-79
2021/09/22 02:33:42;;;;;;;13.90;9.90;;;10.40;99.90;;;;;;5020889;28;20493;-79
2021/09/22 02:36:09;;;;;;;15.97;10.90;;;10.40;99.90;;;;;;5024934;28;20485;-79
2021/09/22 02:38:36;;;;;;;11.10;9.53;;;10.40;99.90;;;;;;5038740;28;20491;-79
2021/09/22 02:41:03;;;;;;;13.40;10.17;;;10.50;99.90;;;;;;5024548;28;20481;-78
2021/09/22 02:43:29;;;;;;;12.17;9.63;;;10.40;99.90;;;;;;5019631;28;21018;-79
2021/09/22 02:45:56;;;;;;;13.03;10.00;;;10.30;99.90;;;;;;5024108;28;20493;-79
2021/09/22 02:48:24;;;;;;;14.27;10.90;;;10.30;99.90;;;;;;5037823;28;20504;-79
2021/09/22 02:50:51;;;;;;;16.77;10.37;;;10.30;99.90;;;;;;5037918;28;20999;-80
2021/09/22 02:53:18;;;;;;;12.30;9.97;;;10.30;99.90;;;;;;5038778;28;20460;-79
2021/09/22 02:55:45;;;;;;;15.37;10.27;;;10.30;99.90;;;;;;5049065;28;20962;-79
2021/09/22 02:58:12;;;;;;;13.00;10.23;;;10.30;99.90;;;;;;5052633;28;20575;-79
2021/09/22 03:00:39;;;;;;;14.70;10.60;;;10.20;99.90;;;;;;5058198;28;20480;-79
2021/09/22 03:03:06;;;;;;;13.70;10.43;;;10.30;99.90;;;;;;5041722;28;20544;-80
2021/09/22 03:05:34;;;;;;;14.80;10.57;;;10.10;99.90;;;;;;5042256;28;20491;-79
2021/09/22 03:08:01;;;;;;;15.27;11.70;;;10.20;99.90;;;;;;5049145;28;20496;-78
2021/09/22 03:10:28;;;;;;;15.47;11.07;;;10.10;99.90;;;;;;5054738;28;20464;-78
2021/09/22 03:12:55;;;;;;;13.00;9.83;;;10.20;99.90;;;;;;5060840;28;20538;-79
2021/09/22 03:15:22;;;;;;;17.00;11.70;;;10.20;99.90;;;;;;5046419;28;20457;-78
2021/09/22 03:17:49;;;;;;;16.07;11.50;;;10.30;99.90;;;;;;5038697;28;21064;-78
2021/09/22 03:20:16;;;;;;;16.20;10.97;;;10.20;99.90;;;;;;5028457;28;20481;-77
2021/09/22 03:22:45;;;;;;;13.73;9.73;;;10.20;99.90;;;;;;5023462;28;20456;-77
2021/09/22 03:25:13;;;;;;;16.30;10.10;;;10.10;99.90;;;;;;5055626;28;20455;-77
2021/09/22 03:27:41;;;;;;;14.77;11.43;;;10.10;99.90;;;;;;5032498;28;20636;-78
2021/09/22 03:30:11;;;;;;;17.80;11.50;;;10.20;99.90;;;;;;5035793;28;20463;-79
2021/09/22 03:32:38;;;;;;;14.67;10.40;;;10.20;99.90;;;;;;5049640;23;20508;-78
2021/09/22 03:35:06;;;;;;;14.10;10.27;;;10.20;99.90;;;;;;5035595;28;20476;-78
2021/09/22 03:37:33;;;;;;;17.00;10.70;;;10.30;99.90;;;;;;5038672;28;20483;-78
2021/09/22 03:40:01;;;;;;;15.20;10.40;;;10.20;99.90;;;;;;5040019;28;20474;-78
2021/09/22 03:42:28;;;;;;;14.70;10.67;;;10.20;99.90;;;;;;5029909;28;20452;-78
2021/09/22 03:44:55;;;;;;;15.00;11.77;;;10.20;99.90;;;;;;5020740;28;21038;-79
2021/09/22 03:47:22;;;;;;;16.97;11.00;;;10.10;99.90;;;;;;5021639;28;20489;-79
2021/09/22 03:49:49;;;;;;;13.60;10.70;;;10.00;99.90;;;;;;5019510;28;20521;-80
2021/09/22 03:52:16;;;;;;;16.90;11.07;;;10.00;99.90;;;;;;5025464;28;20472;-79
2021/09/22 03:54:43;;;;;;;14.20;12.17;;;10.00;99.90;;;;;;5025131;28;20496;-79
2021/09/22 03:57:11;;;;;;;17.80;11.17;;;10.00;99.90;;;;;;5024440;28;20502;-79
2021/09/22 03:59:39;;;;;;;16.27;11.03;;;10.10;99.90;;;;;;5020808;28;20523;-79
2021/09/22 04:02:06;;;;;;;15.23;10.47;;;10.20;99.90;;;;;;5021692;28;20485;-80
2021/09/22 04:04:32;;;;;;;16.40;12.03;;;10.30;99.90;;;;;;5022323;28;21029;-80
2021/09/22 04:06:59;;;;;;;14.03;10.87;;;10.20;99.90;;;;;;5021522;28;20568;-79
2021/09/22 04:09:27;;;;;;;16.13;11.10;;;10.20;99.90;;;;;;5019854;28;20533;-79
2021/09/22 04:11:53;;;;;;;16.63;11.33;;;10.10;99.90;;;;;;5023998;28;20473;-79
2021/09/22 04:14:22;;;;;;;15.70;11.70;;;10.00;99.90;;;;;;5021130;28;20492;-79
2021/09/22 04:16:48;;;;;;;13.47;11.10;;;9.90;99.90;;;;;;5028027;28;20449;-79
2021/09/22 04:19:15;;;;;;;14.10;10.70;;;10.00;99.90;;;;;;5016301;28;20846;-79
2021/09/22 04:21:43;;;;;;;16.10;11.93;;;9.90;99.90;;;;;;5015950;28;20480;-79
2021/09/22 04:24:11;;;;;;;15.80;12.00;;;9.90;99.90;;;;;;5020815;28;20461;-80
2021/09/22 04:26:38;;;;;;;14.43;11.07;;;10.00;99.90;;;;;;5020619;28;20592;-80
2021/09/22 04:29:05;;;;;;;15.70;10.87;;;10.00;99.90;;;;;;5020891;28;20543;-79
2021/09/22 04:31:34;;;;;;;16.57;12.00;;;10.00;99.90;;;;;;5020531;28;20526;-80
2021/09/22 04:34:01;;;;;;;14.93;11.37;;;10.10;99.90;;;;;;5021343;28;20515;-79
2021/09/22 04:36:28;;;;;;;13.63;10.93;;;10.10;99.90;;;;;;5024019;28;20460;-79
2021/09/22 04:38:55;;;;;;;16.23;10.90;;;10.20;99.90;;;;;;5022488;28;20472;-79
2021/09/22 04:41:22;;;;;;;17.13;11.73;;;10.10;99.90;;;;;;5019162;28;20945;-78
2021/09/22 04:43:49;;;;;;;13.50;11.20;;;10.20;99.90;;;;;;5024118;28;20917;-79
2021/09/22 04:46:15;;;;;;;15.70;11.70;;;10.20;99.90;;;;;;5023910;28;20483;-79
2021/09/22 04:48:44;;;;;;;15.73;12.27;;;10.00;99.90;;;;;;5022558;28;20527;-80
2021/09/22 04:51:11;;;;;;;16.13;11.43;;;9.90;99.90;;;;;;5021479;28;20517;-79
2021/09/22 04:53:38;;;;;;;15.47;11.70;;;9.90;99.90;;;;;;5019569;28;20967;-79
2021/09/22 04:56:06;;;;;;;17.70;12.00;;;9.90;99.90;;;;;;5018615;28;20557;-79
2021/09/22 04:58:32;;;;;;;18.43;12.60;;;9.90;99.90;;;;;;5020507;28;20463;-79
2021/09/22 05:01:01;;;;;;;15.17;10.90;;;9.80;99.90;;;;;;5019105;28;20500;-79
2021/09/22 05:03:28;;;;;;;16.00;11.63;;;9.80;99.90;;;;;;5021380;28;20541;-80
2021/09/22 05:05:57;;;;;;;17.43;12.03;;;9.80;99.90;;;;;;5020662;28;20467;-80
2021/09/22 05:08:24;;;;;;;19.43;11.57;;;9.90;99.90;;;;;;5019916;28;20515;-80
2021/09/22 05:10:51;;;;;;;15.90;11.60;;;10.00;99.90;;;;;;5021341;28;20446;-79
2021/09/22 05:13:18;;;;;;;15.60;12.23;;;10.00;99.90;;;;;;5020115;28;20568;-80
2021/09/22 05:15:45;;;;;;;15.90;12.10;;;10.00;99.90;;;;;;5020803;28;20475;-80
2021/09/22 05:18:12;;;;;;;14.47;10.33;;;9.90;99.90;;;;;;5021843;28;20962;-80
2021/09/22 05:20:39;;;;;;;15.00;12.17;;;10.10;99.90;;;;;;5029849;28;20561;-80
2021/09/22 05:23:07;;;;;;;17.80;12.40;;;10.20;99.90;;;;;;5021299;28;20512;-80
2021/09/22 05:25:34;;;;;;;16.63;11.47;;;10.10;99.90;;;;;;5025023;28;20463;-81
2021/09/22 05:28:01;;;;;;;17.50;12.70;;;10.10;99.90;;;;;;5024081;28;20596;-80
2021/09/22 05:30:28;;;;;;;17.50;12.20;;;9.90;99.90;;;;;;5023169;28;20573;-80
2021/09/22 05:32:55;;;;;;;17.40;11.40;;;9.90;99.90;;;;;;5022809;28;20572;-80
2021/09/22 05:35:21;;;;;;;19.83;13.37;;;9.90;99.90;;;;;;5021856;28;20548;-80
2021/09/22 05:37:48;;;;;;;16.20;12.20;;;10.00;99.90;;;;;;5021223;28;20456;-84
2021/09/22 05:40:16;;;;;;;16.00;13.00;;;10.00;99.90;;;;;;5023292;28;20544;-85
2021/09/22 05:42:43;;;;;;;17.50;12.47;;;9.90;99.90;;;;;;5024909;28;20542;-84
2021/09/22 05:45:14;;;;;;;19.30;13.40;;;10.00;99.90;;;;;;5029055;28;20479;-84
2021/09/22 05:47:40;;;;;;;15.87;12.37;;;10.10;99.90;;;;;;5016227;28;20481;-83
2021/09/22 05:50:08;;;;;;;20.50;13.87;;;10.10;99.90;;;;;;5020673;28;20855;-84
2021/09/22 05:52:35;;;;;;;21.43;12.10;;;10.00;99.90;;;;;;5012618;28;20556;-84
2021/09/22 05:55:02;;;;;;;20.67;13.10;;;10.10;99.90;;;;;;5017609;28;20543;-84
2021/09/22 05:57:30;;;;;;;14.10;11.23;;;10.20;99.90;;;;;;5009367;28;20477;-84
2021/09/22 05:59:57;;;;;;;17.63;12.50;;;10.20;99.90;;;;;;5019851;28;20544;-83
2021/09/22 06:02:23;;;;;;;22.97;14.23;;;10.10;99.90;;;;;;5012139;28;20921;-84
2021/09/22 06:04:50;;;;;;;17.00;13.10;;;10.20;99.90;;;;;;5019639;28;20492;-83
2021/09/22 06:07:17;;;;;;;18.83;12.40;;;10.30;99.90;;;;;;5020177;28;20533;-83
2021/09/22 06:09:44;;;;;;;18.63;13.57;;;10.20;99.90;;;;;;5017191;28;20532;-82
2021/09/22 06:12:11;;;;;;;19.73;13.03;;;10.30;99.90;;;;;;5020244;28;20897;-84
2021/09/22 06:14:39;;;;;;;18.27;12.90;;;10.20;99.90;;;;;;5019727;28;21029;-83
2021/09/22 06:17:06;;;;;;;16.17;12.70;;;10.30;99.90;;;;;;5019934;28;20462;-83
2021/09/22 06:19:33;;;;;;;17.10;13.07;;;10.30;99.90;;;;;;5021792;28;20576;-83
2021/09/22 06:22:00;;;;;;;17.90;13.17;;;10.40;99.90;;;;;;5020297;28;20549;-82
2021/09/22 06:24:27;;;;;;;20.20;13.40;;;10.50;99.90;;;;;;5024111;28;20872;-83
2021/09/22 06:26:55;;;;;;;18.87;13.73;;;10.60;99.90;;;;;;5022848;28;20457;-83
2021/09/22 06:29:22;;;;;;;18.47;13.00;;;10.70;99.90;;;;;;5020178;28;21000;-83
2021/09/22 06:31:50;;;;;;;20.43;14.30;;;10.70;99.90;;;;;;5021247;28;20611;-83
2021/09/22 06:34:17;;;;;;;20.63;13.70;;;10.90;99.90;;;;;;5021478;28;20494;-83
2021/09/22 06:36:44;;;;;;;25.43;15.70;;;10.90;99.90;;;;;;5021420;28;20453;-83
2021/09/22 06:39:11;;;;;;;25.30;14.40;;;11.00;99.90;;;;;;5021595;28;20469;-83
2021/09/22 06:41:39;;;;;;;22.00;14.83;;;11.20;99.90;;;;;;5020895;28;20483;-83
2021/09/22 06:44:06;;;;;;;18.70;15.27;;;11.30;99.90;;;;;;5021850;28;20492;-83
2021/09/22 06:46:33;;;;;;;22.07;14.53;;;11.30;99.90;;;;;;5019164;28;20537;-83
2021/09/22 06:49:01;;;;;;;23.10;15.20;;;11.30;99.90;;;;;;5019317;28;20486;-85
2021/09/22 06:51:29;;;;;;;21.43;15.20;;;11.40;99.90;;;;;;5020846;28;20457;-84
2021/09/22 06:53:56;;;;;;;21.20;15.67;;;11.50;99.90;;;;;;5025947;28;20444;-83
2021/09/22 06:56:24;;;;;;;21.97;15.53;;;11.50;99.90;;;;;;5024908;28;20529;-83
2021/09/22 06:58:51;;;;;;;20.40;15.87;;;11.60;99.90;;;;;;5020196;28;20629;-84
2021/09/22 07:01:18;;;;;;;26.40;17.37;;;11.60;99.90;;;;;;5019655;28;20500;-84
2021/09/22 07:03:45;;;;;;;23.20;16.83;;;11.70;99.90;;;;;;5011667;28;20506;-84
2021/09/22 07:06:13;;;;;;;26.37;18.17;;;11.80;99.90;;;;;;5019604;28;20501;-83
2021/09/22 07:08:41;;;;;;;27.03;17.90;;;11.90;99.90;;;;;;5019483;28;20565;-83
2021/09/22 07:11:08;;;;;;;24.00;17.77;;;11.80;99.90;;;;;;5022333;28;20436;-82
2021/09/22 07:13:37;;;;;;;24.00;17.33;;;11.80;99.90;;;;;;5020505;28;20517;-83
2021/09/22 07:16:04;;;;;;;23.43;16.40;;;11.80;99.90;;;;;;5026173;28;20558;-83
2021/09/22 07:18:31;;;;;;;22.33;17.50;;;12.10;99.90;;;;;;5022755;28;20525;-83
2021/09/22 07:21:00;;;;;;;23.70;18.03;;;12.30;99.90;;;;;;5023923;28;20521;-83
2021/09/22 07:23:29;;;;;;;23.73;17.43;;;12.30;99.90;;;;;;5026035;28;20472;-82
2021/09/22 07:25:56;;;;;;;23.73;17.20;;;12.30;99.90;;;;;;5021653;28;20758;-82
2021/09/22 07:28:23;;;;;;;29.53;19.90;;;12.20;99.90;;;;;;5018495;28;20891;-83
2021/09/22 07:30:50;;;;;;;21.00;16.73;;;12.30;99.90;;;;;;5020487;28;20429;-83
2021/09/22 07:33:17;;;;;;;24.20;19.17;;;12.30;99.90;;;;;;5014631;28;20561;-83
2021/09/22 07:35:44;;;;;;;25.80;17.83;;;12.40;99.90;;;;;;5022484;28;20481;-83
2021/09/22 07:38:11;;;;;;;29.70;19.50;;;12.40;99.90;;;;;;5020112;28;20462;-82
2021/09/22 07:40:39;;;;;;;24.17;17.10;;;12.40;99.90;;;;;;5034156;28;20526;-82
2021/09/22 07:43:06;;;;;;;26.43;17.77;;;12.50;99.90;;;;;;5017442;28;20585;-84
2021/09/22 07:45:33;;;;;;;26.13;19.43;;;12.50;99.90;;;;;;5012106;28;20557;-84
2021/09/22 07:48:00;;;;;;;25.37;17.77;;;12.60;99.90;;;;;;5019913;28;20620;-84
2021/09/22 07:50:28;;;;;;;26.77;19.30;;;12.80;99.90;;;;;;5020839;28;20948;-84
2021/09/22 07:52:55;;;;;;;23.50;17.40;;;13.10;99.90;;;;;;5019772;28;21002;-83
2021/09/22 07:55:22;;;;;;;28.00;18.83;;;13.10;99.90;;;;;;5020913;28;20485;-83
2021/09/22 07:57:54;;;;;;;28.67;18.20;;;13.20;99.90;;;;;;5016801;28;20504;-83
2021/09/22 08:00:21;;;;;;;22.60;17.30;;;13.30;99.90;;;;;;5019231;28;20498;-83
2021/09/22 08:02:48;;;;;;;20.77;16.60;;;13.30;99.90;;;;;;5015654;28;20532;-84
2021/09/22 08:05:15;;;;;;;24.07;17.87;;;13.40;99.90;;;;;;4998562;28;20514;-82
2021/09/22 08:07:43;;;;;;;27.87;17.80;;;13.50;99.90;;;;;;4998296;28;20460;-82
2021/09/22 08:10:11;;;;;;;26.87;17.80;;;13.40;99.90;;;;;;5016864;28;20514;-83
2021/09/22 08:12:38;;;;;;;23.30;18.87;;;13.50;99.90;;;;;;5017546;28;20506;-83
2021/09/22 08:15:07;;;;;;;23.97;18.40;;;13.70;99.90;;;;;;5014731;28;20541;-83
2021/09/22 08:17:34;;;;;;;23.03;17.80;;;13.90;99.90;;;;;;5011737;28;20456;-83
2021/09/22 08:20:02;;;;;;;22.13;16.87;;;14.00;99.90;;;;;;5013894;28;20451;-83
2021/09/22 08:22:31;;;;;;;24.20;18.17;;;14.00;99.90;;;;;;5007628;28;20468;-83
2021/09/22 08:24:58;;;;;;;19.63;16.00;;;14.00;99.90;;;;;;5019776;28;20437;-83
2021/09/22 08:27:25;;;;;;;23.20;17.00;;;14.10;99.90;;;;;;5018822;28;20437;-83
2021/09/22 08:29:52;;;;;;;22.13;16.30;;;14.10;99.90;;;;;;5019743;28;20838;-84
2021/09/22 08:32:21;;;;;;;22.53;18.00;;;14.30;99.90;;;;;;5021189;28;20495;-84
2021/09/22 08:34:48;;;;;;;21.23;16.90;;;14.40;99.90;;;;;;5016733;28;20425;-84
2021/09/22 08:37:14;;;;;;;22.93;17.67;;;14.40;99.90;;;;;;5021454;28;20545;-84
2021/09/22 08:39:41;;;;;;;22.70;16.60;;;14.40;99.90;;;;;;5019724;28;20496;-84
2021/09/22 08:42:08;;;;;;;18.50;16.23;;;14.40;99.90;;;;;;5004858;28;20537;-84
2021/09/22 08:44:35;;;;;;;24.20;17.40;;;14.50;99.90;;;;;;5001603;28;20501;-85
2021/09/22 08:47:02;;;;;;;35.73;21.63;;;14.60;99.90;;;;;;5018106;28;20450;-83
2021/09/22 08:49:30;;;;;;;19.87;16.10;;;14.70;99.90;;;;;;5013629;28;20585;-83
2021/09/22 08:51:57;;;;;;;16.70;14.23;;;14.80;99.90;;;;;;5015191;28;20470;-83
2021/09/22 08:54:24;;;;;;;22.97;14.43;;;14.90;99.90;;;;;;5012281;28;20445;-82
2021/09/22 08:56:51;;;;;;;20.33;16.23;;;15.10;99.90;;;;;;5022425;28;20513;-83
2021/09/22 08:59:18;;;;;;;20.93;15.20;;;15.20;99.90;;;;;;5024277;28;20520;-84
2021/09/22 09:02:06;;;;;;;18.80;15.87;;;15.20;99.90;;;;;;5019636;28;20989;-84
2021/09/22 09:04:34;;;;;;;15.90;13.37;;;15.30;99.90;;;;;;5014523;28;20421;-84
2021/09/22 09:07:01;;;;;;;17.77;13.10;;;15.40;99.90;;;;;;5016887;28;20425;-83
2021/09/22 09:09:36;;;;;;;19.40;13.57;;;15.50;99.90;;;;;;5024239;28;20476;-83
2021/09/22 09:12:04;;;;;;;16.03;12.13;;;15.40;99.90;;;;;;5023047;28;20884;-83
2021/09/22 09:14:35;;;;;;;17.80;13.10;;;15.40;99.90;;;;;;5022390;28;20885;-84
2021/09/22 09:17:10;;;;;;;16.53;11.60;;;15.50;99.90;;;;;;5022857;28;20464;-83
2021/09/22 09:19:45;;;;;;;16.57;12.30;;;15.60;99.90;;;;;;5008602;28;20877;-84
2021/09/22 09:22:12;;;;;;;18.70;13.90;;;15.80;99.90;;;;;;5023156;28;20553;-84
2021/09/22 09:24:41;;;;;;;14.30;10.83;;;15.70;99.90;;;;;;5025115;28;20505;-84
2021/09/22 09:27:10;;;;;;;17.30;12.60;;;15.80;99.90;;;;;;5022697;28;20789;-83
2021/09/22 09:29:38;;;;;;;21.90;12.57;;;15.70;99.90;;;;;;5003765;28;20479;-84
2021/09/22 09:32:17;;;;;;;15.90;12.17;;;15.90;99.90;;;;;;5010069;28;20560;-84
2021/09/22 09:35:01;;;;;;;14.80;10.73;;;15.90;99.90;;;;;;5044650;23;20511;-80
2021/09/22 09:37:33;;;;;;;16.70;12.87;;;16.00;99.90;;;;;;4999712;28;20462;-81
2021/09/22 09:40:23;;;;;;;16.70;12.10;;;16.20;99.90;;;;;;5018530;28;20477;-81
2021/09/22 09:42:51;;;;;;;14.03;11.93;;;16.40;99.90;;;;;;5019521;28;20450;-81
2021/09/22 09:45:20;;;;;;;15.30;12.50;;;16.20;99.90;;;;;;5025743;28;20454;-81
2021/09/22 09:48:06;;;;;;;15.43;11.30;;;16.40;99.90;;;;;;5043079;28;20424;-82
2021/09/22 09:50:45;;;;;;;16.30;9.50;;;16.60;99.90;;;;;;5031443;28;20413;-81
2021/09/22 09:53:23;;;;;;;18.53;8.47;;;16.80;99.90;;;;;;5029434;28;20503;-81
2021/09/22 09:55:50;;;;;;;12.27;9.40;;;16.90;99.90;;;;;;5040103;28;20451;-81
2021/09/22 09:58:18;;;;;;;12.17;9.53;;;16.90;99.90;;;;;;5025772;28;20486;-84
2021/09/22 10:00:48;;;;;;;11.20;8.90;;;16.80;99.90;;;;;;5020869;28;20547;-80
2021/09/22 10:03:16;;;;;;;12.40;9.20;;;16.90;99.90;;;;;;5034468;28;20806;-80
2021/09/22 10:05:45;;;;;;;10.37;9.10;;;16.90;99.90;;;;;;5042105;28;20843;-83
2021/09/22 10:08:13;;;;;;;11.33;8.17;;;16.80;99.90;;;;;;5024454;28;20527;-80
2021/09/22 10:10:43;;;;;;;12.47;8.23;;;16.90;99.90;;;;;;5030660;28;20456;-79
2021/09/22 10:13:11;;;;;;;16.77;9.00;;;16.90;99.90;;;;;;5041590;28;20448;-81
2021/09/22 10:15:40;;;;;;;11.73;8.43;;;16.90;99.90;;;;;;5030318;28;20446;-79
2021/09/22 10:18:08;;;;;;;12.90;8.50;;;16.90;99.90;;;;;;5026587;28;20498;-81
2021/09/22 10:20:37;;;;;;;10.10;8.23;;;17.00;99.90;;;;;;5023180;28;20483;-81
2021/09/22 10:23:05;;;;;;;10.90;7.90;;;17.20;99.90;;;;;;5026394;28;20493;-78
2021/09/22 10:25:33;;;;;;;12.13;8.63;;;17.20;99.90;;;;;;5024377;28;20558;-80
2021/09/22 10:28:00;;;;;;;12.07;10.27;;;17.10;99.90;;;;;;5020031;28;20526;-79
2021/09/22 10:30:39;;;;;;;11.83;9.03;;;17.00;99.90;;;;;;5019285;28;20982;-85
2021/09/22 10:33:07;;;;;;;10.77;8.53;;;17.10;99.90;;;;;;5019396;28;21009;-79
2021/09/22 10:35:39;;;;;;;13.93;8.60;;;17.10;99.90;;;;;;5018608;28;20506;-80
2021/09/22 10:38:52;;;;;;;12.10;8.70;;;17.20;99.90;;;;;;5019860;28;20454;-80
2021/09/22 10:41:42;;;;;;;11.47;6.83;;;17.30;99.90;;;;;;5019956;28;20429;-80
2021/09/22 10:44:30;;;;;;;11.10;6.60;;;17.30;99.90;;;;;;5016025;28;20481;-80
2021/09/22 10:47:22;;;;;;;12.33;7.80;;;17.20;99.90;;;;;;5024098;28;20476;-79
2021/09/22 10:49:49;;;;;;;9.60;7.23;;;17.10;99.90;;;;;;5022164;28;20488;-79
2021/09/22 10:52:29;;;;;;;17.93;6.33;;;17.10;99.90;;;;;;5020868;28;20961;-80
2021/09/22 10:55:14;;;;;;;7.20;5.90;;;17.10;99.90;;;;;;5018757;28;20413;-79
2021/09/22 10:57:44;;;;;;;10.03;7.10;;;17.30;99.90;;;;;;5016947;28;20946;-81
2021/09/22 11:00:13;;;;;;;10.20;7.23;;;17.30;99.90;;;;;;5019085;28;20570;-79
2021/09/22 11:02:45;;;;;;;8.23;6.50;;;17.40;99.90;;;;;;5030065;28;20521;-80
2021/09/22 11:05:14;;;;;;;10.93;7.03;;;17.60;99.70;;;;;;5038457;28;20562;-82
2021/09/22 11:08:04;;;;;;;7.73;5.60;;;17.60;99.10;;;;;;5026448;28;20520;-80
2021/09/22 11:10:41;;;;;;;7.77;5.10;;;17.70;98.50;;;;;;5023092;28;20485;-80
2021/09/22 11:13:34;;;;;;;8.10;6.53;;;17.70;98.30;;;;;;5035408;28;20534;-80
2021/09/22 11:16:20;;;;;;;7.23;5.60;;;17.50;98.80;;;;;;4993491;28;20843;-81
2021/09/22 11:18:51;;;;;;;9.60;6.17;;;17.50;98.80;;;;;;4997800;28;20432;-80
2021/09/22 11:21:23;;;;;;;8.17;4.97;;;17.50;98.60;;;;;;4998142;28;20539;-81
2021/09/22 11:23:51;;;;;;;7.37;6.07;;;17.60;98.10;;;;;;5028631;28;20457;-80
2021/09/22 11:26:18;;;;;;;8.20;4.90;;;17.60;97.90;;;;;;5037783;28;20481;-81
2021/09/22 11:28:52;;;;;;;7.60;4.13;;;17.60;98.20;;;;;;5037858;28;20546;-81
2021/09/22 11:31:21;;;;;;;7.57;5.37;;;17.70;98.20;;;;;;5033404;28;20507;-81
2021/09/22 11:33:49;;;;;;;5.90;4.07;;;18.00;98.10;;;;;;5037995;28;20464;-80
2021/09/22 11:36:16;;;;;;;5.53;4.23;;;18.10;97.40;;;;;;5022397;28;20455;-82
2021/09/22 11:38:43;;;;;;;7.60;5.40;;;18.00;97.50;;;;;;5017826;28;20518;-80
2021/09/22 11:41:10;;;;;;;5.43;3.87;;;18.10;97.70;;;;;;5018032;28;20540;-81
2021/09/22 11:43:37;;;;;;;6.33;3.73;;;18.30;97.40;;;;;;5034910;28;20487;-81
2021/09/22 11:46:06;;;;;;;6.10;4.47;;;18.30;97.10;;;;;;5022647;28;20863;-81
2021/09/22 11:48:33;;;;;;;6.60;4.50;;;18.30;97.20;;;;;;5022725;28;20535;-80
2021/09/22 11:51:03;;;;;;;6.67;4.90;;;18.20;97.40;;;;;;5018588;28;20481;-81
2021/09/22 11:53:32;;;;;;;6.70;4.47;;;18.10;97.60;;;;;;5035882;28;20461;-80
2021/09/22 11:56:00;;;;;;;5.93;3.93;;;18.20;97.40;;;;;;5036738;28;20533;-81
2021/09/22 11:58:29;;;;;;;5.77;3.93;;;18.20;97.40;;;;;;5034531;28;20951;-79
2021/09/22 12:00:57;;;;;;;6.40;4.27;;;18.20;98.20;;;;;;5019951;28;20501;-81
2021/09/22 12:03:27;;;;;;;7.50;5.10;;;18.20;97.50;;;;;;5013183;28;20468;-82
2021/09/22 12:06:08;;;;;;;7.57;4.77;;;18.20;97.60;;;;;;5010865;28;20485;-81
2021/09/22 12:08:38;;;;;;;6.13;4.53;;;18.30;97.70;;;;;;5019526;28;20469;-79
2021/09/22 12:11:05;;;;;;;6.40;4.80;;;18.40;97.80;;;;;;5023979;28;20496;-81
2021/09/22 12:13:40;;;;;;;6.17;4.43;;;18.50;97.30;;;;;;5036842;28;20988;-82
2021/09/22 12:16:07;;;;;;;5.10;3.93;;;18.50;97.70;;;;;;5035685;28;20453;-81
2021/09/22 12:18:36;;;;;;;5.50;3.53;;;18.40;97.60;;;;;;5011894;28;20495;-82
2021/09/22 12:21:03;;;;;;;4.93;3.60;;;18.50;97.60;;;;;;5005473;28;20514;-79
2021/09/22 12:23:32;;;;;;;5.00;3.30;;;18.60;97.30;;;;;;5004522;28;20482;-80
2021/09/22 12:26:13;;;;;;;5.20;3.17;;;18.60;97.20;;;;;;5026249;28;20446;-79
2021/09/22 12:28:41;;;;;;;5.33;3.73;;;18.80;97.20;;;;;;5007630;28;20439;-81
2021/09/22 12:31:15;;;;;;;8.40;4.17;;;18.70;97.10;;;;;;5017474;28;20480;-81
2021/09/22 12:33:44;;;;;;;9.73;4.43;;;18.80;97.10;;;;;;5007407;28;20434;-82
2021/09/22 12:36:13;;;;;;;8.77;4.57;;;18.80;97.00;;;;;;5040613;28;20511;-80
2021/09/22 12:38:46;;;;;;;6.17;3.80;;;18.90;96.90;;;;;;5036641;28;20453;-81
2021/09/22 12:41:13;;;;;;;8.30;4.10;;;18.90;96.90;;;;;;5034760;28;20489;-79